Time;durP1;ratioP1;P1;durP2;ratioP2;P2;SDS_P1;SDS_P2;PMS_P1;PMS_P2;Temp;Humidity;BMP_temperature;BMP_pressure;BME280_temperature;BME280_humidity;BME280_pressure;Samples;Min_cycle;Max_cycle;Signal;HPM_P1;HPM_P2
2020/12/07 00:00:40;;;;;;;7.17;4.63;;;21.20;54.40;;;;;;5073974;28;20206;-68
2020/12/07 00:03:06;;;;;;;5.20;4.70;;;21.20;54.40;;;;;;5074191;28;20209;-68
2020/12/07 00:05:31;;;;;;;5.60;4.50;;;21.20;54.40;;;;;;5073956;28;20471;-68
2020/12/07 00:07:57;;;;;;;5.90;4.50;;;21.20;54.40;;;;;;5073875;28;20171;-68
2020/12/07 00:10:23;;;;;;;6.00;4.67;;;21.20;54.30;;;;;;5072989;28;20178;-68
2020/12/07 00:12:49;;;;;;;6.90;5.30;;;21.20;54.20;;;;;;5074096;28;20534;-68
2020/12/07 00:15:15;;;;;;;8.40;4.53;;;21.30;54.30;;;;;;5072571;28;20178;-67
2020/12/07 00:17:40;;;;;;;6.90;5.87;;;21.30;54.20;;;;;;5073776;28;20173;-67
2020/12/07 00:20:07;;;;;;;7.80;4.87;;;21.30;54.20;;;;;;5073636;28;20264;-67
2020/12/07 00:22:33;;;;;;;4.97;4.03;;;21.30;54.10;;;;;;5073691;28;20193;-67
2020/12/07 00:25:00;;;;;;;4.77;4.27;;;21.30;54.00;;;;;;5073651;28;20925;-67
2020/12/07 00:27:28;;;;;;;4.80;3.93;;;21.40;54.10;;;;;;5073606;28;20771;-67
2020/12/07 00:29:55;;;;;;;5.50;4.43;;;21.40;54.00;;;;;;5073522;28;20476;-68
2020/12/07 00:32:21;;;;;;;5.20;3.90;;;21.40;54.00;;;;;;5072163;28;20468;-67
2020/12/07 00:34:47;;;;;;;5.63;4.20;;;21.40;54.00;;;;;;5073457;28;20431;-67
2020/12/07 00:37:13;;;;;;;6.07;4.50;;;21.40;54.00;;;;;;5073401;28;20404;-67
2020/12/07 00:39:39;;;;;;;7.40;4.80;;;21.40;53.90;;;;;;5073547;28;20818;-67
2020/12/07 00:42:07;;;;;;;6.33;4.43;;;21.40;53.90;;;;;;5073247;28;20420;-67
2020/12/07 00:44:32;;;;;;;4.87;4.20;;;21.40;53.90;;;;;;5073468;28;20177;-66
2020/12/07 00:46:58;;;;;;;5.10;4.63;;;21.40;53.80;;;;;;5073288;28;20763;-67
2020/12/07 00:49:24;;;;;;;5.10;4.13;;;21.50;53.80;;;;;;5073799;28;20162;-67
2020/12/07 00:51:49;;;;;;;5.63;4.00;;;21.50;53.80;;;;;;5073402;28;20236;-67
2020/12/07 00:54:18;;;;;;;5.00;4.20;;;21.50;53.80;;;;;;5073152;28;20900;-67
2020/12/07 00:56:44;;;;;;;5.80;4.00;;;21.50;53.80;;;;;;5073138;28;20166;-67
2020/12/07 00:59:28;;;;;;;7.87;4.60;;;21.40;53.70;;;;;;5073216;28;20786;-66
2020/12/07 01:01:56;;;;;;;6.30;4.17;;;21.50;53.80;;;;;;5072916;28;20194;-65
2020/12/07 01:04:22;;;;;;;6.30;4.90;;;21.40;53.70;;;;;;5073385;28;20401;-67
2020/12/07 01:06:51;;;;;;;6.10;4.30;;;21.50;53.80;;;;;;5073181;28;20420;-65
2020/12/07 01:09:18;;;;;;;6.03;4.17;;;21.50;53.80;;;;;;5073139;28;20436;-67
2020/12/07 01:11:44;;;;;;;4.97;4.07;;;21.50;53.70;;;;;;5073004;28;20433;-67
2020/12/07 01:14:11;;;;;;;4.73;4.17;;;21.50;53.80;;;;;;5072932;28;20919;-67
2020/12/07 01:16:37;;;;;;;4.83;3.97;;;21.50;53.70;;;;;;5073149;28;20424;-67
2020/12/07 01:19:04;;;;;;;5.17;4.40;;;21.50;53.70;;;;;;5072885;28;20848;-67
2020/12/07 01:21:31;;;;;;;6.33;3.97;;;21.50;53.70;;;;;;5075836;28;20311;-67
2020/12/07 01:23:57;;;;;;;5.83;4.33;;;21.50;53.70;;;;;;5079765;28;20404;-67
2020/12/07 01:26:23;;;;;;;6.40;4.67;;;21.50;53.70;;;;;;5079512;28;20462;-67
2020/12/07 01:28:49;;;;;;;5.73;4.30;;;21.50;53.70;;;;;;5079803;28;20412;-67
2020/12/07 01:31:14;;;;;;;4.23;3.80;;;21.50;53.70;;;;;;5079402;28;20177;-66
2020/12/07 01:33:40;;;;;;;5.00;3.93;;;21.50;53.70;;;;;;5079112;28;20170;-67
2020/12/07 01:36:06;;;;;;;6.93;3.90;;;21.50;53.70;;;;;;5079598;28;20235;-67
2020/12/07 01:38:31;;;;;;;7.23;3.70;;;21.50;53.70;;;;;;5079355;28;20589;-67
2020/12/07 01:40:57;;;;;;;4.43;3.60;;;21.50;53.70;;;;;;5079258;28;20174;-65
2020/12/07 01:43:23;;;;;;;5.17;4.30;;;21.50;53.70;;;;;;5079669;28;20166;-66
2020/12/07 01:45:48;;;;;;;5.50;3.80;;;21.50;53.70;;;;;;5079228;28;20640;-66
2020/12/07 01:48:14;;;;;;;5.60;4.40;;;21.50;53.70;;;;;;5079324;28;20196;-65
2020/12/07 01:50:44;;;;;;;3.83;3.43;;;21.50;53.70;;;;;;5079299;28;20518;-67
2020/12/07 01:53:10;;;;;;;4.13;3.73;;;21.50;53.60;;;;;;5079232;28;20190;-67
2020/12/07 01:55:37;;;;;;;5.13;3.90;;;21.50;53.70;;;;;;5079540;28;20508;-67
2020/12/07 01:58:03;;;;;;;4.20;3.60;;;21.50;53.60;;;;;;5077976;28;20413;-66
2020/12/07 02:00:28;;;;;;;4.00;3.47;;;21.50;53.70;;;;;;5079177;28;20454;-67
2020/12/07 02:02:54;;;;;;;5.20;3.90;;;21.50;53.70;;;;;;5079063;28;20239;-67
2020/12/07 02:05:20;;;;;;;4.60;3.60;;;21.50;53.70;;;;;;5079171;28;20197;-67
2020/12/07 02:07:46;;;;;;;5.53;4.07;;;21.50;53.60;;;;;;5079155;28;20154;-67
2020/12/07 02:10:11;;;;;;;6.30;3.80;;;21.50;53.60;;;;;;5079083;28;20747;-67
2020/12/07 02:12:37;;;;;;;5.80;4.97;;;21.50;53.60;;;;;;5079015;28;20190;-67
2020/12/07 02:15:03;;;;;;;5.60;3.67;;;21.50;53.60;;;;;;5079075;28;20174;-67
2020/12/07 02:17:28;;;;;;;4.00;3.00;;;21.50;53.60;;;;;;5079216;28;20584;-67
2020/12/07 02:19:54;;;;;;;4.97;3.80;;;21.50;53.60;;;;;;5079320;28;20286;-65
2020/12/07 02:22:19;;;;;;;5.03;3.33;;;21.50;53.60;;;;;;5079120;28;20209;-66
2020/12/07 02:24:45;;;;;;;5.70;3.97;;;21.50;53.60;;;;;;5079380;28;20224;-67
2020/12/07 02:27:11;;;;;;;5.00;4.23;;;21.50;53.70;;;;;;5079284;28;20170;-66
2020/12/07 02:29:36;;;;;;;5.70;3.87;;;21.50;53.60;;;;;;5079030;28;20181;-67
2020/12/07 02:32:16;;;;;;;6.40;4.30;;;21.50;53.60;;;;;;5079680;28;20232;-66
2020/12/07 02:34:43;;;;;;;4.50;4.07;;;21.50;53.70;;;;;;5075384;28;20175;-66
2020/12/07 02:37:09;;;;;;;5.10;4.17;;;21.50;53.70;;;;;;5076095;28;20413;-66
2020/12/07 02:39:36;;;;;;;4.43;4.00;;;21.50;53.70;;;;;;5075896;28;20452;-66
2020/12/07 02:42:03;;;;;;;5.00;3.93;;;21.50;54.20;;;;;;5075713;28;20482;-66
2020/12/07 02:44:29;;;;;;;4.60;3.40;;;21.50;53.70;;;;;;5075536;28;20400;-67
2020/12/07 02:46:54;;;;;;;5.03;3.80;;;21.50;53.70;;;;;;5076135;28;20389;-66
2020/12/07 02:49:20;;;;;;;6.03;4.00;;;21.50;53.70;;;;;;5075561;28;20587;-66
2020/12/07 02:51:45;;;;;;;4.03;3.63;;;21.50;54.00;;;;;;5075380;28;20190;-67
2020/12/07 02:54:12;;;;;;;5.30;3.53;;;21.50;53.70;;;;;;5075391;28;20174;-67
2020/12/07 02:56:37;;;;;;;3.90;3.43;;;21.50;53.70;;;;;;5075468;28;20209;-65
2020/12/07 02:59:03;;;;;;;4.10;3.70;;;21.50;53.70;;;;;;5075521;28;20937;-66
2020/12/07 03:01:29;;;;;;;4.20;3.30;;;21.50;53.70;;;;;;5075233;28;20562;-66
2020/12/07 03:03:54;;;;;;;3.90;3.40;;;21.50;53.70;;;;;;5075208;28;20174;-68
2020/12/07 03:06:20;;;;;;;4.30;3.90;;;21.50;53.80;;;;;;5075328;28;20257;-67
2020/12/07 03:08:45;;;;;;;4.47;3.73;;;21.50;53.70;;;;;;5075142;28;20171;-67
2020/12/07 03:11:11;;;;;;;4.87;4.13;;;21.50;53.80;;;;;;5075004;28;20510;-68
2020/12/07 03:13:36;;;;;;;4.07;3.63;;;21.50;53.70;;;;;;5075241;28;20170;-67
2020/12/07 03:16:02;;;;;;;4.10;3.60;;;21.50;53.80;;;;;;5073701;28;20202;-68
2020/12/07 03:18:28;;;;;;;4.50;3.93;;;21.40;53.70;;;;;;5075209;28;20534;-68
2020/12/07 03:20:53;;;;;;;3.73;3.30;;;21.50;53.80;;;;;;5074820;28;20209;-66
2020/12/07 03:23:19;;;;;;;4.63;3.80;;;21.50;53.80;;;;;;5074814;28;20213;-66
2020/12/07 03:25:44;;;;;;;4.87;4.03;;;21.50;53.80;;;;;;5074741;28;20174;-68
2020/12/07 03:28:10;;;;;;;3.80;3.10;;;21.50;53.80;;;;;;5074775;28;20223;-68
2020/12/07 03:30:36;;;;;;;5.20;3.30;;;21.50;53.80;;;;;;5074736;28;20174;-68
2020/12/07 03:33:01;;;;;;;4.67;3.77;;;21.50;53.80;;;;;;5074637;28;20240;-67
2020/12/07 03:35:27;;;;;;;4.13;3.73;;;21.50;54.30;;;;;;5074605;28;20284;-68
2020/12/07 03:37:52;;;;;;;4.37;3.73;;;21.50;53.70;;;;;;5074526;28;20171;-67
2020/12/07 03:40:18;;;;;;;4.33;3.83;;;21.50;53.70;;;;;;5074450;28;20226;-66
2020/12/07 03:42:44;;;;;;;4.77;3.60;;;21.50;53.70;;;;;;5074414;28;20197;-67
2020/12/07 03:45:09;;;;;;;4.70;3.20;;;21.40;53.70;;;;;;5072961;28;20186;-67
2020/12/07 03:47:35;;;;;;;4.00;3.33;;;21.40;53.70;;;;;;5073168;28;20625;-67
2020/12/07 03:50:01;;;;;;;3.53;2.90;;;21.50;53.70;;;;;;5074333;28;20173;-67
2020/12/07 03:52:26;;;;;;;3.30;3.00;;;21.50;53.70;;;;;;5074192;28;20431;-68
2020/12/07 03:54:52;;;;;;;3.93;3.53;;;21.50;53.80;;;;;;5074225;28;20186;-67
2020/12/07 03:57:17;;;;;;;4.00;3.60;;;21.50;53.80;;;;;;5074183;28;20221;-66
2020/12/07 03:59:43;;;;;;;4.60;3.50;;;21.40;53.80;;;;;;5074020;28;20198;-67
2020/12/07 04:02:09;;;;;;;4.97;3.90;;;21.40;53.80;;;;;;5074266;28;20273;-69
2020/12/07 04:04:54;;;;;;;4.07;3.03;;;21.40;53.90;;;;;;5073985;28;20535;-67
2020/12/07 04:07:20;;;;;;;4.17;3.43;;;21.40;53.80;;;;;;5074326;28;20554;-68
2020/12/07 04:09:45;;;;;;;5.00;3.30;;;21.40;53.80;;;;;;5072646;28;20455;-68
2020/12/07 04:12:11;;;;;;;3.70;2.90;;;21.40;53.80;;;;;;5074300;28;20281;-67
2020/12/07 04:14:36;;;;;;;7.23;4.17;;;21.40;53.80;;;;;;5073872;28;20170;-68
2020/12/07 04:17:02;;;;;;;4.40;3.80;;;21.40;53.80;;;;;;5074051;28;20170;-68
2020/12/07 04:19:28;;;;;;;3.83;3.53;;;21.40;53.80;;;;;;5073903;28;20247;-68
2020/12/07 04:21:53;;;;;;;4.00;3.60;;;21.40;53.80;;;;;;5055656;28;20194;-67
2020/12/07 04:24:19;;;;;;;4.53;3.00;;;21.40;53.80;;;;;;5073918;28;20650;-68
2020/12/07 04:26:44;;;;;;;3.13;2.83;;;21.40;53.70;;;;;;5073602;28;20181;-68
2020/12/07 04:29:10;;;;;;;4.80;3.33;;;21.40;53.70;;;;;;5073851;28;20205;-67
2020/12/07 04:31:35;;;;;;;3.53;3.10;;;21.40;53.70;;;;;;5073763;28;20232;-67
2020/12/07 04:34:01;;;;;;;2.77;2.57;;;21.40;53.70;;;;;;5073505;28;20172;-67
2020/12/07 04:36:27;;;;;;;3.30;3.00;;;21.40;53.70;;;;;;5073422;28;20180;-67
2020/12/07 04:38:52;;;;;;;3.33;3.03;;;21.50;53.80;;;;;;5073353;28;20182;-67
2020/12/07 04:41:18;;;;;;;4.03;3.63;;;21.50;53.80;;;;;;5073553;28;20186;-67
2020/12/07 04:43:44;;;;;;;3.87;3.40;;;21.40;53.70;;;;;;5073307;28;20174;-67
2020/12/07 04:46:10;;;;;;;3.80;3.00;;;21.50;53.80;;;;;;5073298;28;20563;-67
2020/12/07 04:48:38;;;;;;;3.33;2.93;;;21.50;53.80;;;;;;5073763;28;20405;-67
2020/12/07 04:51:04;;;;;;;3.10;2.80;;;21.40;53.70;;;;;;5073238;28;20192;-67
2020/12/07 04:53:32;;;;;;;3.10;2.80;;;21.40;53.80;;;;;;5073258;28;20404;-68
2020/12/07 04:55:59;;;;;;;3.80;3.30;;;21.40;53.80;;;;;;5072720;28;20846;-68
2020/12/07 04:58:26;;;;;;;4.60;3.70;;;21.30;53.80;;;;;;5073176;28;20413;-68
2020/12/07 05:00:52;;;;;;;3.77;3.20;;;21.30;54.20;;;;;;5073027;28;20448;-67
2020/12/07 05:03:18;;;;;;;3.80;3.40;;;21.30;53.90;;;;;;5073027;28;20798;-67
2020/12/07 05:05:43;;;;;;;3.60;3.03;;;21.30;53.90;;;;;;5073240;28;20169;-68
2020/12/07 05:08:09;;;;;;;3.53;3.10;;;21.30;53.90;;;;;;5073301;28;20174;-67
2020/12/07 05:10:43;;;;;;;2.90;2.60;;;21.20;53.90;;;;;;5071726;28;20223;-67
2020/12/07 05:15:44;;;;;;;4.27;2.90;;;21.20;54.00;;;;;;5073102;28;20793;-67
2020/12/07 05:18:09;;;;;;;3.10;2.30;;;21.20;54.00;;;;;;5073248;28;20458;-67
2020/12/07 05:20:35;;;;;;;4.00;2.80;;;21.20;54.10;;;;;;5072765;28;20190;-67
2020/12/07 05:23:01;;;;;;;3.53;2.80;;;21.20;54.00;;;;;;5072829;28;20555;-68
2020/12/07 05:25:28;;;;;;;3.10;2.80;;;21.10;54.00;;;;;;5073396;28;20169;-68
2020/12/07 05:27:57;;;;;;;3.03;2.60;;;21.10;54.00;;;;;;5072872;28;20211;-67
2020/12/07 05:30:30;;;;;;;3.40;2.63;;;21.10;54.00;;;;;;5071687;28;20413;-66
2020/12/07 05:32:56;;;;;;;3.23;2.90;;;21.10;54.10;;;;;;5072767;28;20567;-67
2020/12/07 05:35:22;;;;;;;2.83;2.53;;;21.10;54.10;;;;;;5072790;28;20963;-67
2020/12/07 05:37:48;;;;;;;2.63;2.43;;;21.10;54.10;;;;;;5073043;28;20405;-68
2020/12/07 05:40:15;;;;;;;3.67;3.07;;;21.10;54.00;;;;;;5071393;28;20478;-68
2020/12/07 05:42:42;;;;;;;2.70;2.17;;;21.10;54.00;;;;;;5072650;28;20603;-67
2020/12/07 05:45:08;;;;;;;2.80;2.60;;;21.10;54.00;;;;;;5072747;28;20427;-68
2020/12/07 05:47:37;;;;;;;3.20;2.77;;;21.20;54.10;;;;;;5072713;28;20412;-67
2020/12/07 05:50:05;;;;;;;6.80;2.40;;;21.20;54.10;;;;;;5071340;28;20424;-68
2020/12/07 05:52:39;;;;;;;4.27;3.20;;;21.10;54.00;;;;;;5072477;28;20918;-67
2020/12/07 05:55:04;;;;;;;2.93;2.47;;;21.10;54.00;;;;;;5072682;28;20454;-67
2020/12/07 05:57:31;;;;;;;2.90;2.57;;;21.10;54.00;;;;;;5072539;28;20903;-68
2020/12/07 06:00:04;;;;;;;2.60;2.33;;;21.10;54.00;;;;;;5072424;28;20229;-66
2020/12/07 06:02:30;;;;;;;2.47;2.27;;;21.10;54.00;;;;;;5072635;28;20439;-67
2020/12/07 06:04:57;;;;;;;2.40;2.20;;;21.20;54.00;;;;;;5072479;28;20512;-68
2020/12/07 06:07:27;;;;;;;2.97;2.57;;;21.20;54.00;;;;;;5072769;28;20174;-67
2020/12/07 06:09:55;;;;;;;2.90;2.20;;;21.20;54.00;;;;;;5075631;28;20393;-71
2020/12/07 06:12:26;;;;;;;2.50;2.20;;;21.20;53.90;;;;;;5075680;28;20438;-66
2020/12/07 06:14:53;;;;;;;1.80;1.70;;;21.20;53.90;;;;;;5076779;28;20486;-65
2020/12/07 06:17:30;;;;;;;4.00;3.63;;;21.20;53.90;;;;;;5076188;28;20948;-66
2020/12/07 06:19:55;;;;;;;2.47;2.00;;;21.20;53.90;;;;;;5076029;28;20443;-66
2020/12/07 06:22:22;;;;;;;2.20;2.00;;;21.20;53.90;;;;;;5076042;28;20432;-67
2020/12/07 06:24:53;;;;;;;4.90;2.60;;;21.20;53.90;;;;;;5075904;28;20189;-67
2020/12/07 06:27:19;;;;;;;3.23;2.63;;;21.20;53.90;;;;;;5076204;28;20472;-67
2020/12/07 06:29:57;;;;;;;2.57;2.37;;;21.20;53.90;;;;;;5075894;28;20427;-66
2020/12/07 06:32:23;;;;;;;2.70;2.50;;;21.30;53.90;;;;;;5076017;28;20434;-68
2020/12/07 06:34:57;;;;;;;2.57;2.03;;;21.20;53.90;;;;;;5076725;28;20420;-65
2020/12/07 06:37:25;;;;;;;3.77;2.83;;;21.20;53.90;;;;;;5076222;28;20161;-67
2020/12/07 06:39:51;;;;;;;3.53;2.10;;;21.20;53.90;;;;;;5075678;28;20493;-67
2020/12/07 06:42:19;;;;;;;1.90;1.70;;;21.20;53.90;;;;;;5075597;28;20421;-68
2020/12/07 06:44:50;;;;;;;2.10;1.90;;;21.20;53.90;;;;;;5074213;28;20439;-68
2020/12/07 06:47:19;;;;;;;2.60;2.10;;;21.20;53.90;;;;;;5076007;28;20393;-66
2020/12/07 06:49:52;;;;;;;3.37;1.80;;;21.20;53.80;;;;;;5075809;28;20409;-66
2020/12/07 06:52:20;;;;;;;2.40;2.10;;;21.30;53.80;;;;;;5075780;28;20790;-65
2020/12/07 06:55:09;;;;;;;2.13;1.93;;;21.30;53.80;;;;;;5074207;28;20416;-66
2020/12/07 06:57:44;;;;;;;2.20;1.93;;;21.20;53.70;;;;;;5074456;28;20392;-66
2020/12/07 07:00:24;;;;;;;2.60;1.70;;;21.30;53.80;;;;;;5075326;28;20808;-67
2020/12/07 07:02:51;;;;;;;2.37;2.03;;;21.30;53.70;;;;;;5075395;28;20425;-67
2020/12/07 07:05:24;;;;;;;2.23;2.00;;;21.30;53.70;;;;;;5075398;28;20487;-67
2020/12/07 07:07:50;;;;;;;2.60;2.40;;;21.30;53.70;;;;;;5075164;28;20408;-66
2020/12/07 07:10:16;;;;;;;2.47;2.00;;;21.30;53.70;;;;;;5075500;28;20456;-66
2020/12/07 07:12:43;;;;;;;2.17;1.83;;;21.30;53.70;;;;;;5074992;28;20432;-67
2020/12/07 07:15:10;;;;;;;2.33;2.00;;;21.30;53.60;;;;;;5073813;28;20417;-67
2020/12/07 07:17:38;;;;;;;3.20;2.37;;;21.40;53.70;;;;;;5075414;28;20409;-66
2020/12/07 07:20:06;;;;;;;3.53;2.70;;;21.40;53.70;;;;;;5074778;28;20454;-67
2020/12/07 07:22:34;;;;;;;2.67;1.90;;;21.40;53.70;;;;;;5073723;28;20439;-66
2020/12/07 07:30:28;;;;;;;4.70;2.00;;;21.50;53.60;;;;;;5074349;28;20400;-66
2020/12/07 07:32:55;;;;;;;2.10;1.90;;;21.50;53.60;;;;;;5074588;28;20420;-67
2020/12/07 07:35:23;;;;;;;2.20;1.97;;;21.50;53.60;;;;;;5074636;28;20440;-68
2020/12/07 07:37:49;;;;;;;2.00;1.80;;;21.50;53.50;;;;;;5073358;28;20413;-66
2020/12/07 07:40:17;;;;;;;2.30;1.77;;;21.60;53.60;;;;;;5074500;28;20494;-66
2020/12/07 07:42:50;;;;;;;1.97;1.60;;;21.60;53.60;;;;;;5074494;28;20199;-67
2020/12/07 07:45:18;;;;;;;2.30;1.97;;;21.60;53.60;;;;;;5074539;28;20446;-66
2020/12/07 07:48:36;;;;;;;2.07;1.83;;;21.60;53.50;;;;;;5074673;28;20434;-67
2020/12/07 07:59:25;;;;;;;2.07;1.87;;;21.60;53.40;;;;;;5074139;28;20388;-68
2020/12/07 08:17:55;;;;;;;3.20;1.77;;;21.70;53.50;;;;;;5074139;28;20434;-68
2020/12/07 08:20:32;;;;;;;2.07;1.77;;;21.70;53.50;;;;;;5073593;28;20463;-66
2020/12/07 08:23:06;;;;;;;1.97;1.73;;;21.70;53.50;;;;;;5073733;28;20443;-67
2020/12/07 08:25:49;;;;;;;2.13;1.63;;;21.70;53.50;;;;;;5074042;28;20397;-68
2020/12/07 08:28:28;;;;;;;2.97;2.10;;;21.80;53.60;;;;;;5073965;28;20404;-67
2020/12/07 08:31:14;;;;;;;1.87;1.60;;;21.80;53.60;;;;;;5073174;28;20446;-67
2020/12/07 08:34:03;;;;;;;2.60;1.80;;;21.70;53.50;;;;;;5073795;28;20766;-67
2020/12/07 08:36:32;;;;;;;2.00;1.77;;;21.80;53.50;;;;;;5073616;28;20405;-68
2020/12/07 08:38:59;;;;;;;200.23;24.20;;;21.80;53.70;;;;;;5072022;28;20427;-68
2020/12/07 08:41:29;;;;;;;184.10;26.30;;;21.70;53.50;;;;;;5073402;28;20436;-68
2020/12/07 08:44:07;;;;;;;250.20;33.93;;;21.80;53.60;;;;;;5073491;28;20392;-68
2020/12/07 08:46:36;;;;;;;165.33;24.93;;;21.80;53.60;;;;;;5073315;28;20944;-68
2020/12/07 08:49:02;;;;;;;140.87;23.03;;;21.70;53.50;;;;;;5073541;28;20776;-68
2020/12/07 08:51:31;;;;;;;110.63;15.47;;;21.80;53.60;;;;;;5073251;28;20919;-68
2020/12/07 08:53:57;;;;;;;76.07;16.27;;;21.80;53.50;;;;;;5073286;28;20534;-67
2020/12/07 08:56:23;;;;;;;90.30;16.80;;;21.80;53.50;;;;;;5073186;28;20495;-67
2020/12/07 08:58:49;;;;;;;86.13;17.57;;;21.80;53.40;;;;;;5073204;28;20219;-67
2020/12/07 09:01:14;;;;;;;78.90;14.90;;;21.80;53.40;;;;;;5073125;28;20174;-67
2020/12/07 09:03:42;;;;;;;50.03;11.33;;;21.80;53.50;;;;;;5073382;28;20532;-67
2020/12/07 09:06:09;;;;;;;72.97;15.30;;;21.80;53.40;;;;;;5073427;28;20163;-68
2020/12/07 09:08:35;;;;;;;52.53;13.03;;;21.80;53.40;;;;;;5072910;28;20409;-67
2020/12/07 09:11:05;;;;;;;49.27;12.80;;;21.80;53.40;;;;;;5072969;28;20498;-66
2020/12/07 09:13:31;;;;;;;48.47;11.07;;;21.90;53.50;;;;;;5073006;28;20420;-67
2020/12/07 09:15:57;;;;;;;41.77;7.50;;;21.80;53.30;;;;;;5073007;28;20427;-67
2020/12/07 09:18:22;;;;;;;39.00;9.27;;;21.90;53.40;;;;;;5071790;28;20629;-67
2020/12/07 09:20:48;;;;;;;41.53;9.67;;;21.90;53.40;;;;;;5072871;28;20239;-68
2020/12/07 09:23:16;;;;;;;34.90;8.13;;;21.90;53.40;;;;;;5073004;28;20195;-66
2020/12/07 09:25:41;;;;;;;34.20;8.23;;;21.90;53.40;;;;;;5072951;28;20420;-67
2020/12/07 09:28:08;;;;;;;23.80;7.10;;;21.90;53.40;;;;;;5073182;28;20404;-67
2020/12/07 09:30:34;;;;;;;18.80;6.17;;;21.90;53.40;;;;;;5073245;28;20587;-67
2020/12/07 09:33:00;;;;;;;25.73;7.23;;;21.90;53.40;;;;;;5073102;28;20523;-67
2020/12/07 09:35:26;;;;;;;22.63;6.27;;;21.90;53.40;;;;;;5073060;28;20491;-66
2020/12/07 09:37:51;;;;;;;29.17;6.83;;;21.90;53.40;;;;;;5072797;28;20529;-68
2020/12/07 09:40:17;;;;;;;29.57;7.60;;;21.90;53.40;;;;;;5072997;28;20206;-66
2020/12/07 09:42:44;;;;;;;27.57;9.90;;;21.90;53.40;;;;;;5074551;28;20197;-68
2020/12/07 09:45:10;;;;;;;27.80;5.73;;;21.90;53.40;;;;;;5076815;28;20269;-66
2020/12/07 09:47:37;;;;;;;20.80;5.70;;;21.90;53.40;;;;;;5076798;28;20470;-67
2020/12/07 09:50:04;;;;;;;12.03;5.60;;;21.90;53.40;;;;;;5076741;28;20448;-67
2020/12/07 09:52:30;;;;;;;15.10;5.23;;;21.90;53.40;;;;;;5076913;28;20799;-67
2020/12/07 09:54:55;;;;;;;17.33;4.27;;;21.90;53.40;;;;;;5075228;28;20412;-67
2020/12/07 09:57:21;;;;;;;14.77;5.40;;;22.00;53.40;;;;;;5076720;28;20223;-68
2020/12/07 09:59:48;;;;;;;12.57;4.43;;;22.00;53.50;;;;;;5076738;28;20206;-66
2020/12/07 10:02:14;;;;;;;14.20;4.10;;;21.90;53.40;;;;;;5076436;28;20196;-68
2020/12/07 10:04:40;;;;;;;10.10;4.53;;;21.90;53.40;;;;;;5076495;28;20393;-66
2020/12/07 10:07:06;;;;;;;11.40;4.57;;;21.90;53.40;;;;;;5076707;28;20568;-67
2020/12/07 10:09:31;;;;;;;10.33;4.00;;;21.90;53.40;;;;;;5076686;28;20417;-68
2020/12/07 10:11:57;;;;;;;16.80;5.90;;;21.90;53.70;;;;;;5076180;28;20744;-67
2020/12/07 10:14:22;;;;;;;13.00;4.03;;;22.00;53.50;;;;;;5076258;28;20170;-67
2020/12/07 10:16:48;;;;;;;7.67;3.67;;;22.00;53.50;;;;;;5076422;28;20583;-66
2020/12/07 10:19:14;;;;;;;10.27;4.13;;;22.00;53.40;;;;;;5076092;28;20190;-67
2020/12/07 10:21:40;;;;;;;9.07;4.37;;;22.00;53.40;;;;;;5075979;28;20221;-68
2020/12/07 10:24:05;;;;;;;15.93;4.37;;;22.00;53.40;;;;;;5076192;28;20159;-68
2020/12/07 10:26:32;;;;;;;7.30;3.47;;;22.00;53.50;;;;;;5075998;28;20448;-68
2020/12/07 10:28:58;;;;;;;11.30;3.70;;;22.00;54.00;;;;;;5077046;28;20170;-68
2020/12/07 10:31:24;;;;;;;6.63;3.63;;;22.00;53.40;;;;;;5075829;28;20610;-67
2020/12/07 10:33:51;;;;;;;7.80;3.47;;;22.00;53.40;;;;;;5075889;28;20412;-67
2020/12/07 10:36:18;;;;;;;7.47;3.10;;;22.00;53.40;;;;;;5075890;28;20159;-68
2020/12/07 10:38:44;;;;;;;6.43;4.03;;;22.00;53.40;;;;;;5075760;28;20397;-66
2020/12/07 10:41:10;;;;;;;4.80;3.30;;;22.00;53.40;;;;;;5057781;28;20505;-66
2020/12/07 10:43:37;;;;;;;9.57;3.43;;;22.00;53.40;;;;;;5076005;28;20480;-67
2020/12/07 10:46:03;;;;;;;5.63;3.10;;;22.10;53.50;;;;;;5075513;28;20424;-68
2020/12/07 10:48:29;;;;;;;7.80;2.93;;;22.00;53.40;;;;;;5075859;28;20412;-68
2020/12/07 10:50:56;;;;;;;7.10;3.43;;;22.00;53.40;;;;;;5075577;28;20169;-67
2020/12/07 10:53:21;;;;;;;10.53;4.27;;;22.00;53.40;;;;;;5075280;28;20665;-68
2020/12/07 10:55:47;;;;;;;8.20;4.73;;;22.00;53.40;;;;;;5075122;28;20393;-67
2020/12/07 10:58:12;;;;;;;7.47;3.50;;;22.00;53.40;;;;;;5075716;28;20580;-68
2020/12/07 11:00:38;;;;;;;5.87;2.93;;;22.10;53.50;;;;;;5075250;28;20237;-68
2020/12/07 11:03:05;;;;;;;4.90;2.90;;;22.10;53.50;;;;;;5075289;28;20269;-68
2020/12/07 11:05:31;;;;;;;7.00;2.63;;;22.10;53.50;;;;;;5075324;28;20163;-66
2020/12/07 11:07:57;;;;;;;4.80;2.70;;;22.10;53.50;;;;;;5075559;28;20921;-67
2020/12/07 11:10:23;;;;;;;7.00;2.50;;;22.00;53.40;;;;;;5075524;28;20408;-67
2020/12/07 11:12:57;;;;;;;6.20;2.97;;;22.10;53.50;;;;;;5075181;28;20281;-66
2020/12/07 11:15:23;;;;;;;10.47;2.83;;;22.10;53.50;;;;;;5075470;28;20150;-66
2020/12/07 11:17:48;;;;;;;3.87;2.60;;;22.10;53.50;;;;;;5075348;28;20462;-67
2020/12/07 11:20:14;;;;;;;5.40;2.57;;;22.10;53.80;;;;;;5074945;28;20585;-67
2020/12/07 11:22:39;;;;;;;4.43;2.10;;;22.10;53.50;;;;;;5074899;28;20261;-67
2020/12/07 11:25:05;;;;;;;4.27;2.30;;;22.10;53.50;;;;;;5075182;28;20154;-66
2020/12/07 11:27:30;;;;;;;4.97;2.80;;;22.10;53.50;;;;;;5075119;28;20565;-67
2020/12/07 11:29:56;;;;;;;5.27;2.33;;;22.10;53.50;;;;;;5075009;28;20174;-66
2020/12/07 11:32:22;;;;;;;8.03;2.63;;;22.10;54.00;;;;;;5074822;28;20187;-68
2020/12/07 11:34:47;;;;;;;6.00;2.27;;;22.10;53.50;;;;;;5074688;28;20158;-68
2020/12/07 11:37:13;;;;;;;5.43;2.90;;;22.10;53.50;;;;;;5074951;28;20557;-68
2020/12/07 11:44:35;;;;;;;4.43;2.20;;;22.10;53.50;;;;;;5074713;28;20397;-67
2020/12/07 11:47:08;;;;;;;2.87;2.17;;;22.10;53.50;;;;;;5073255;28;20474;-67
2020/12/07 11:49:33;;;;;;;4.50;2.80;;;22.20;53.50;;;;;;5074526;28;20159;-68
2020/12/07 11:52:06;;;;;;;4.30;2.63;;;22.10;53.50;;;;;;5074388;28;20483;-68
2020/12/07 11:54:32;;;;;;;4.03;2.23;;;22.10;53.50;;;;;;5074431;28;20170;-68
2020/12/07 11:57:02;;;;;;;2.83;2.13;;;22.10;53.50;;;;;;5074614;28;20404;-68
2020/12/07 11:59:28;;;;;;;4.90;2.13;;;22.10;53.50;;;;;;5074424;28;20440;-67
2020/12/07 12:01:53;;;;;;;5.37;2.17;;;22.10;53.50;;;;;;5074437;28;20473;-67
2020/12/07 12:04:19;;;;;;;4.23;3.30;;;22.10;53.50;;;;;;5074134;28;20641;-67
2020/12/07 12:06:44;;;;;;;3.37;1.70;;;22.10;53.50;;;;;;5072944;28;20177;-67
2020/12/07 12:09:12;;;;;;;8.70;2.33;;;22.10;53.40;;;;;;5074065;28;20660;-67
2020/12/07 12:11:39;;;;;;;2.50;1.90;;;22.10;53.40;;;;;;5073903;28;20186;-67
2020/12/07 12:14:06;;;;;;;4.63;2.50;;;22.20;53.60;;;;;;5073925;28;20492;-66
2020/12/07 12:16:32;;;;;;;7.20;1.90;;;22.10;53.50;;;;;;5073931;28;20407;-67
2020/12/07 12:18:59;;;;;;;5.20;2.55;;;22.10;53.50;;;;;;5073784;28;20419;-67
2020/12/07 12:21:27;;;;;;;4.03;2.40;;;22.10;53.50;;;;;;5073824;28;20425;-66
2020/12/07 12:23:53;;;;;;;3.67;2.10;;;22.10;53.50;;;;;;5073824;28;20990;-67
2020/12/07 12:26:20;;;;;;;2.73;2.07;;;22.10;53.50;;;;;;5073675;28;20412;-68
2020/12/07 12:28:46;;;;;;;6.33;2.20;;;22.10;53.50;;;;;;5073588;28;20409;-68
2020/12/07 12:31:13;;;;;;;5.73;2.07;;;22.10;53.50;;;;;;5073491;28;20817;-67
2020/12/07 12:33:38;;;;;;;3.40;1.90;;;22.10;53.50;;;;;;5073534;28;20435;-68
2020/12/07 12:36:05;;;;;;;3.67;1.93;;;22.10;53.50;;;;;;5073535;28;20405;-67
2020/12/07 12:38:31;;;;;;;4.00;1.80;;;22.10;53.50;;;;;;5073512;28;20178;-68
2020/12/07 12:40:56;;;;;;;2.47;2.27;;;22.10;53.60;;;;;;5072243;28;21054;-67
2020/12/07 12:43:22;;;;;;;3.30;1.70;;;22.10;53.50;;;;;;5073397;28;20261;-67
2020/12/07 12:45:48;;;;;;;3.60;1.90;;;22.10;53.60;;;;;;5072029;28;20675;-67
2020/12/07 12:48:13;;;;;;;3.80;2.10;;;22.10;53.60;;;;;;5073453;28;20178;-67
2020/12/07 12:50:39;;;;;;;3.00;1.60;;;22.10;53.60;;;;;;5073366;28;20154;-67
2020/12/07 12:53:05;;;;;;;3.83;2.30;;;22.00;53.50;;;;;;5073260;28;20186;-67
2020/12/07 12:55:30;;;;;;;4.50;1.90;;;22.00;53.50;;;;;;5073581;28;20301;-68
2020/12/07 12:57:56;;;;;;;2.93;2.00;;;22.10;53.60;;;;;;5073560;28;20220;-67
2020/12/07 13:00:22;;;;;;;2.17;1.60;;;22.10;53.60;;;;;;5073165;28;20272;-66
2020/12/07 13:02:48;;;;;;;2.43;1.73;;;22.00;53.50;;;;;;5073139;28;20194;-67
2020/12/07 13:05:14;;;;;;;4.60;1.80;;;22.00;53.50;;;;;;5073284;28;20250;-68
2020/12/07 13:07:40;;;;;;;5.47;2.67;;;22.00;53.60;;;;;;5073128;28;20693;-68
2020/12/07 13:10:06;;;;;;;1.50;1.40;;;22.00;53.60;;;;;;5073379;28;20413;-66
2020/12/07 13:12:31;;;;;;;3.00;2.00;;;22.00;53.60;;;;;;5071658;28;20973;-67
2020/12/07 13:14:57;;;;;;;2.73;1.63;;;22.00;53.60;;;;;;5073015;28;20174;-68
2020/12/07 13:17:25;;;;;;;2.50;2.20;;;21.90;53.50;;;;;;5072756;28;20190;-66
2020/12/07 13:19:52;;;;;;;2.23;1.80;;;22.00;53.70;;;;;;5073003;28;20277;-67
2020/12/07 13:25:01;;;;;;;8.60;4.87;;;22.00;53.70;;;;;;5073319;28;21019;-67